Time;durP1;ratioP1;P1;durP2;ratioP2;P2;SDS_P1;SDS_P2;PMS_P1;PMS_P2;Temp;Humidity;BMP_temperature;BMP_pressure;BME280_temperature;BME280_humidity;BME280_pressure;Samples;Min_cycle;Max_cycle;Signal;HPM_P1;HPM_P2
2022/01/20 00:01:50;;;;;;;33.35;17.77;;;;;;;-0.27;84.29;142209.12;1688505;85;21132;-60
2022/01/20 00:23:17;;;;;;;33.80;17.92;;;;;;;-0.18;84.47;142230.23;1688249;84;21040;-59
2022/01/20 00:28:25;;;;;;;35.00;17.12;;;;;;;-0.25;84.87;142215.34;1693696;85;21004;-59
2022/01/20 00:30:53;;;;;;;32.53;17.90;;;;;;;-0.31;85.02;142200.41;1687659;85;21053;-59
2022/01/20 00:33:33;;;;;;;35.33;18.15;;;;;;;-0.34;85.28;142192.95;1687147;85;21053;-59
2022/01/20 00:38:35;;;;;;;31.95;17.02;;;;;;;-0.31;85.61;142200.41;1688180;85;21061;-60
2022/01/20 00:41:02;;;;;;;38.73;19.12;;;;;;;-0.28;85.76;142206.63;1688596;85;21005;-58
2022/01/20 00:43:29;;;;;;;36.95;18.55;;;;;;;-0.24;85.78;142216.58;1688524;85;21093;-58
2022/01/20 00:45:56;;;;;;;35.63;19.92;;;;;;;-0.23;85.87;142220.33;1688257;85;21520;-59
2022/01/20 00:48:23;;;;;;;34.30;18.55;;;;;;;-0.24;85.91;142217.81;1688172;85;21194;-59
2022/01/20 00:50:50;;;;;;;38.45;20.27;;;;;;;-0.23;85.96;142219.03;1688350;85;21572;-60
2022/01/20 00:53:18;;;;;;;35.55;20.60;;;;;;;-0.18;86.02;142230.23;1691739;84;21577;-60
2022/01/20 00:55:45;;;;;;;39.45;20.23;;;;;;;-0.13;85.98;142242.66;1689381;85;21038;-59
2022/01/20 00:58:11;;;;;;;38.55;19.55;;;;;;;-0.11;85.84;142247.64;1688393;85;21094;-60
2022/01/20 01:00:38;;;;;;;37.15;21.35;;;;;;;-0.10;85.85;142250.11;1688173;85;21066;-59
2022/01/20 01:03:04;;;;;;;36.80;20.43;;;;;;;-0.10;85.81;142250.11;1690515;85;21012;-60
2022/01/20 01:05:34;;;;;;;37.95;20.40;;;;;;;-0.11;85.80;142248.87;1692370;85;21058;-59
2022/01/20 01:08:00;;;;;;;38.50;20.05;;;;;;;-0.08;85.78;142255.09;1688319;85;21555;-60
2022/01/20 01:10:31;;;;;;;34.73;20.77;;;;;;;-0.07;85.73;142257.59;1688215;85;21093;-59
2022/01/20 01:13:09;;;;;;;37.85;20.30;;;;;;;-0.10;85.82;142250.11;1690707;85;21140;-60
2022/01/20 01:15:39;;;;;;;38.60;20.48;;;;;;;-0.11;85.92;142247.64;1687717;85;21041;-59
2022/01/20 01:23:36;;;;;;;38.40;21.60;;;;;;;-0.04;85.99;142265.05;1691199;85;21148;-59
2022/01/20 01:26:08;;;;;;;44.13;22.75;;;;;;;-0.04;85.89;142266.28;1693434;85;21095;-59
2022/01/20 01:28:35;;;;;;;40.45;20.80;;;;;;;-0.08;85.94;142256.31;1694026;85;21072;-59
2022/01/20 01:33:57;;;;;;;40.35;20.77;;;;;;;-0.07;86.06;142257.59;1665793;86;21566;-60
2022/01/20 01:36:25;;;;;;;39.95;22.10;;;;;;;-0.13;86.10;142242.66;1665533;86;21036;-60
2022/01/20 01:38:53;;;;;;;37.55;20.80;;;;;;;-0.17;86.40;142232.75;1665764;86;21059;-61
2022/01/20 01:41:31;;;;;;;33.88;20.55;;;;;;;-0.16;86.50;142235.22;1665618;86;21534;-58
2022/01/20 01:43:53;;;;;;;37.88;20.15;;;;;;;-0.16;86.55;142235.22;1686205;85;21025;-59
2022/01/20 01:46:21;;;;;;;39.05;21.45;;;;;;;-0.15;86.60;142237.69;1688154;85;21054;-59
2022/01/20 01:48:49;;;;;;;38.05;19.62;;;;;;;-0.16;86.61;142236.45;1689841;85;21050;-59
2022/01/20 01:51:16;;;;;;;36.83;20.08;;;;;;;-0.15;86.74;142237.69;1693622;85;21036;-59
2022/01/20 01:53:44;;;;;;;36.70;20.65;;;;;;;-0.14;86.72;142241.44;1693600;85;21180;-59
2022/01/20 01:56:11;;;;;;;41.10;23.52;;;;;;;-0.10;86.72;142250.11;1693491;85;21576;-60
2022/01/20 01:58:38;;;;;;;42.20;21.93;;;;;;;-0.09;86.72;142252.63;1693412;85;21560;-60
2022/01/20 02:01:10;;;;;;;40.73;22.45;;;;;;;-0.09;86.76;142252.63;1664760;86;21087;-59
2022/01/20 02:03:45;;;;;;;39.20;21.05;;;;;;;-0.08;86.76;142255.09;1665514;86;21028;-58
2022/01/20 02:19:48;;;;;;;37.13;21.73;;;;;;;-0.13;87.10;142242.66;1666630;86;21059;-59
2022/01/20 02:22:25;;;;;;;37.08;19.90;;;;;;;-0.13;87.24;142242.66;1665012;86;21143;-60
2022/01/20 02:24:57;;;;;;;40.90;21.48;;;;;;;-0.11;87.23;142248.87;1666401;86;21024;-59
2022/01/20 02:27:23;;;;;;;36.95;20.77;;;;;;;-0.10;87.25;142251.39;1722080;83;21047;-59
2022/01/20 02:29:51;;;;;;;42.65;21.33;;;;;;;-0.07;87.22;142257.59;1670797;85;21069;-59
2022/01/20 02:32:17;;;;;;;36.15;20.43;;;;;;;-0.07;87.14;142258.84;1721371;83;21072;-59
2022/01/20 02:34:44;;;;;;;41.48;20.88;;;;;;;-0.08;87.17;142255.09;1721304;83;21525;-60
2022/01/20 02:37:14;;;;;;;39.58;20.75;;;;;;;-0.06;87.25;142260.06;1654772;85;21062;-60
2022/01/20 02:45:03;;;;;;;35.00;18.73;;;;;;;-0.03;87.12;142267.52;1694755;85;21087;-60
2022/01/20 02:47:33;;;;;;;36.95;20.82;;;;;;;-0.03;87.42;142267.52;1709923;83;21047;-60
2022/01/20 02:50:01;;;;;;;30.95;18.17;;;;;;;-0.05;87.32;142263.81;1731061;83;21481;-61
2022/01/20 02:52:29;;;;;;;38.55;18.98;;;;;;;-0.04;87.35;142266.28;1642359;86;21064;-59
2022/01/20 02:54:56;;;;;;;36.42;20.32;;;;;;;-0.05;87.32;142262.53;1721217;83;21047;-60
2022/01/20 02:57:25;;;;;;;36.23;19.65;;;;;;;-0.03;87.31;142268.75;1698405;83;21009;-60
2022/01/20 02:59:52;;;;;;;35.58;18.40;;;;;;;-0.02;87.34;142270.03;1671436;85;21041;-61
2022/01/20 03:02:19;;;;;;;37.95;19.27;;;;;;;-0.05;87.26;142262.53;1678498;85;21021;-61
2022/01/20 03:04:47;;;;;;;34.40;19.30;;;;;;;-0.08;87.32;142255.09;1682161;83;21064;-60
2022/01/20 03:07:22;;;;;;;33.55;19.10;;;;;;;-0.14;87.45;142240.19;1677920;85;21507;-59
2022/01/20 03:09:48;;;;;;;37.83;19.42;;;;;;;-0.23;87.60;142220.33;1694010;83;21063;-59
2022/01/20 03:12:15;;;;;;;42.67;21.80;;;;;;;-0.27;87.82;142209.12;1648138;86;21046;-60
2022/01/20 03:14:42;;;;;;;31.97;17.98;;;;;;;-0.31;88.01;142200.41;1694615;85;21572;-58
2022/01/20 03:17:09;;;;;;;37.90;21.97;;;;;;;-0.38;88.21;142183.05;1710315;83;21564;-58
2022/01/20 03:19:36;;;;;;;33.05;18.82;;;;;;;-0.46;88.48;142163.13;1705673;83;21060;-58
2022/01/20 03:22:03;;;;;;;37.17;20.25;;;;;;;-0.50;88.71;142154.45;1680387;85;21076;-61
2022/01/20 03:24:30;;;;;;;40.40;20.92;;;;;;;-0.53;88.89;142145.77;1678447;85;21064;-59
2022/01/20 03:26:57;;;;;;;39.80;20.50;;;;;;;-0.60;89.12;142129.59;1678485;85;21024;-58
2022/01/20 03:29:24;;;;;;;38.63;20.72;;;;;;;-0.63;89.41;142120.94;1692778;83;21112;-59
2022/01/20 03:31:51;;;;;;;41.48;23.52;;;;;;;-0.69;89.61;142108.50;1670993;85;21033;-59
2022/01/20 03:34:21;;;;;;;36.38;21.35;;;;;;;-0.74;89.98;142096.09;1721652;83;21052;-59
2022/01/20 03:36:49;;;;;;;35.35;20.15;;;;;;;-0.80;90.28;142079.92;1721513;83;21064;-58
2022/01/20 03:39:18;;;;;;;39.95;20.27;;;;;;;-0.82;90.54;142074.94;1717909;83;21064;-59
2022/01/20 03:41:45;;;;;;;39.00;21.65;;;;;;;-0.90;91.04;142056.31;1671115;85;21053;-60
2022/01/20 03:44:16;;;;;;;40.58;20.55;;;;;;;-0.95;91.33;142043.89;1720039;83;21760;-60
2022/01/20 03:46:42;;;;;;;38.28;21.85;;;;;;;-0.99;91.54;142035.22;1642410;86;21014;-60
2022/01/20 03:49:24;;;;;;;44.93;21.12;;;;;;;-1.02;91.80;142027.73;1721322;83;21052;-60
2022/01/20 03:51:39;;;;;;;37.38;21.20;;;;;;;-1.04;91.94;142022.81;1705945;83;21047;-60
2022/01/20 03:54:05;;;;;;;42.50;20.75;;;;;;;-1.05;92.27;142020.28;1670724;85;21050;-59
2022/01/20 03:56:51;;;;;;;38.70;20.40;;;;;;;-1.11;92.56;142005.41;1701597;83;21076;-59
2022/01/20 03:59:36;;;;;;;35.10;20.92;;;;;;;-1.18;93.07;141989.25;1694593;85;21020;-59
2022/01/20 04:02:05;;;;;;;41.13;22.05;;;;;;;-1.22;93.41;141978.06;1695029;83;21514;-59
2022/01/20 04:04:33;;;;;;;36.23;20.88;;;;;;;-1.24;93.53;141973.14;1683700;85;21549;-59
2022/01/20 04:07:03;;;;;;;37.67;20.55;;;;;;;-1.26;93.72;141969.39;1729908;83;21019;-59
2022/01/20 04:09:30;;;;;;;44.60;21.55;;;;;;;-1.26;93.91;141969.39;1731311;83;21063;-59
2022/01/20 04:11:57;;;;;;;41.73;22.25;;;;;;;-1.28;93.95;141964.42;1646025;85;21066;-60
2022/01/20 04:14:26;;;;;;;44.67;21.02;;;;;;;-1.29;94.22;141961.95;1694567;85;21055;-59
2022/01/20 04:19:30;;;;;;;41.75;22.35;;;;;;;-1.36;94.42;141944.56;1694790;85;21048;-59
2022/01/20 04:21:57;;;;;;;38.83;21.95;;;;;;;-1.37;94.71;141943.34;1714150;83;21040;-59
2022/01/20 04:24:24;;;;;;;41.50;23.02;;;;;;;-1.41;94.84;141933.39;1665522;86;21051;-59
2022/01/20 04:26:51;;;;;;;41.28;22.37;;;;;;;-1.40;94.90;141934.62;1708061;84;21044;-59
2022/01/20 04:29:18;;;;;;;39.70;22.50;;;;;;;-1.42;95.02;141930.92;1665434;86;21175;-60
2022/01/20 04:31:46;;;;;;;40.65;23.45;;;;;;;-1.42;94.99;141929.69;1705789;83;21523;-58
2022/01/20 04:34:13;;;;;;;45.33;24.40;;;;;;;-1.45;95.04;141922.20;1648036;86;21075;-59
2022/01/20 04:36:44;;;;;;;44.63;22.95;;;;;;;-1.47;95.19;141917.28;1634417;88;21112;-59
2022/01/20 04:39:17;;;;;;;41.33;22.62;;;;;;;-1.54;95.33;141902.36;1608320;89;21084;-60
2022/01/20 04:41:44;;;;;;;41.28;22.82;;;;;;;-1.55;95.41;141898.66;1636409;86;21518;-60
2022/01/20 04:44:18;;;;;;;39.18;21.80;;;;;;;-1.56;95.37;141896.16;1635770;88;21063;-59
2022/01/20 04:46:51;;;;;;;47.00;22.82;;;;;;;-1.60;95.45;141887.48;1634915;88;21118;-60
2022/01/20 04:57:17;;;;;;;41.98;22.62;;;;;;;-1.62;95.50;141882.50;1635611;88;21059;-59
2022/01/20 04:59:45;;;;;;;37.73;21.10;;;;;;;-1.63;95.38;141878.77;1638074;86;21035;-59
2022/01/20 05:02:12;;;;;;;36.75;20.95;;;;;;;-1.63;95.33;141880.05;1653349;86;21016;-59
2022/01/20 05:04:44;;;;;;;37.60;20.10;;;;;;;-1.67;95.22;141870.09;1661061;86;21044;-60
2022/01/20 05:07:24;;;;;;;40.78;21.62;;;;;;;-1.71;95.34;141860.16;1661758;86;21054;-60
2022/01/20 05:09:48;;;;;;;38.63;20.32;;;;;;;-1.71;95.35;141858.92;1626718;88;21524;-60
2022/01/20 05:12:20;;;;;;;35.33;18.75;;;;;;;-1.73;95.31;141855.22;1651782;86;21064;-58
2022/01/20 05:14:45;;;;;;;38.98;19.62;;;;;;;-1.71;95.20;141860.16;1661914;86;21100;-58
2022/01/20 05:17:11;;;;;;;42.62;21.00;;;;;;;-1.73;95.06;141855.22;1662643;86;21044;-59
2022/01/20 05:19:40;;;;;;;41.45;21.30;;;;;;;-1.73;94.99;141853.94;1662418;86;21032;-59
2022/01/20 05:22:06;;;;;;;40.65;20.65;;;;;;;-1.76;94.98;141847.73;1657723;86;21071;-58
2022/01/20 05:24:35;;;;;;;34.70;18.45;;;;;;;-1.76;94.94;141847.73;1647217;87;21073;-59
2022/01/20 05:27:05;;;;;;;34.20;18.25;;;;;;;-1.77;94.86;141845.28;1647644;87;21072;-60
2022/01/20 05:29:32;;;;;;;32.67;18.57;;;;;;;-1.76;94.78;141848.97;1659608;86;21065;-59
2022/01/20 05:31:59;;;;;;;44.53;19.07;;;;;;;-1.75;94.61;141851.48;1663262;86;21097;-59
2022/01/20 05:34:27;;;;;;;36.33;19.23;;;;;;;-1.75;94.46;141850.25;1726731;83;21516;-59
2022/01/20 05:36:53;;;;;;;35.03;16.82;;;;;;;-1.76;94.42;141848.97;1653607;85;21025;-58
2022/01/20 05:39:20;;;;;;;34.00;17.12;;;;;;;-1.77;94.22;141846.52;1689686;83;21099;-60
2022/01/20 05:41:47;;;;;;;37.45;19.70;;;;;;;-1.80;94.17;141837.84;1689261;84;21028;-60
2022/01/20 05:44:16;;;;;;;34.38;18.10;;;;;;;-1.81;94.10;141836.56;1687528;84;21058;-59
2022/01/20 05:46:47;;;;;;;33.28;18.57;;;;;;;-1.84;93.86;141827.89;1686047;84;21012;-59
2022/01/20 05:49:20;;;;;;;35.15;18.23;;;;;;;-1.86;93.82;141822.92;1682619;83;21053;-61
2022/01/20 05:51:46;;;;;;;31.73;17.32;;;;;;;-1.89;93.71;141815.48;1697657;83;21020;-59
2022/01/20 05:54:13;;;;;;;34.40;18.25;;;;;;;-1.89;93.59;141815.48;1693818;83;21026;-60
2022/01/20 05:56:40;;;;;;;35.90;17.45;;;;;;;-1.89;93.48;141815.48;1698026;83;21080;-60
2022/01/20 05:59:07;;;;;;;30.40;17.00;;;;;;;-1.85;93.29;141826.66;1690226;83;21015;-59
2022/01/20 06:01:37;;;;;;;31.95;18.17;;;;;;;-1.77;93.08;141845.28;1704466;84;21009;-59
2022/01/20 06:04:08;;;;;;;31.27;17.10;;;;;;;-1.67;92.63;141870.09;1704306;84;21517;-67
2022/01/20 06:06:36;;;;;;;30.08;17.15;;;;;;;-1.63;91.96;141880.05;1703272;84;21026;-58
2022/01/20 06:09:07;;;;;;;34.10;18.30;;;;;;;-1.61;91.73;141884.97;1696992;83;21152;-59
2022/01/20 06:11:35;;;;;;;30.15;16.90;;;;;;;-1.62;91.01;141882.50;1703111;83;21056;-59
2022/01/20 06:14:04;;;;;;;31.70;17.65;;;;;;;-1.63;90.52;141880.05;1679861;85;21246;-58
2022/01/20 06:16:32;;;;;;;32.53;18.17;;;;;;;-1.54;90.38;141902.36;1701523;84;21016;-58
2022/01/20 06:18:59;;;;;;;34.78;16.90;;;;;;;-1.36;89.16;141944.56;1709085;84;21076;-58
2022/01/20 06:21:25;;;;;;;32.33;17.73;;;;;;;-1.16;88.28;141994.22;1687693;83;21200;-58
2022/01/20 06:23:52;;;;;;;31.23;16.42;;;;;;;-0.94;87.13;142047.64;1678488;85;21586;-58
2022/01/20 06:26:20;;;;;;;33.60;17.12;;;;;;;-0.83;86.05;142073.72;1678599;85;21088;-59
2022/01/20 06:28:47;;;;;;;33.80;16.97;;;;;;;-0.62;85.02;142123.39;1678226;85;21024;-59
2022/01/20 06:31:13;;;;;;;38.80;18.02;;;;;;;-0.36;83.95;142187.97;1681063;83;21507;-59
2022/01/20 06:33:40;;;;;;;30.85;16.70;;;;;;;-0.13;83.09;142242.66;1666565;86;21087;-59
2022/01/20 06:36:07;;;;;;;38.67;18.67;;;;;;;-0.07;80.91;142257.59;1679106;83;21048;-59
2022/01/20 06:38:34;;;;;;;34.55;19.15;;;;;;;-0.03;80.49;142267.52;1720108;83;20984;-59
2022/01/20 06:41:01;;;;;;;38.73;17.82;;;;;;;0.00;79.56;142275.02;1693088;85;21652;-58
2022/01/20 06:43:29;;;;;;;34.98;18.55;;;;;;;-0.02;79.09;142270.03;1715864;83;21027;-59
2022/01/20 06:45:56;;;;;;;36.33;18.57;;;;;;;-0.04;78.65;142265.05;1670860;85;21001;-59
2022/01/20 06:48:36;;;;;;;31.35;17.48;;;;;;;-0.08;78.35;142255.09;1629604;86;21172;-59
2022/01/20 06:51:08;;;;;;;40.83;20.30;;;;;;;0.02;78.10;142278.72;1647176;87;21102;-59
2022/01/20 06:53:34;;;;;;;45.45;23.25;;;;;;;0.19;77.35;142320.98;1654109;87;21114;-59
2022/01/20 06:56:01;;;;;;;43.55;21.50;;;;;;;0.30;76.37;142347.08;1653926;87;21073;-59
2022/01/20 06:58:29;;;;;;;46.40;23.12;;;;;;;0.25;75.69;142335.88;1690263;83;21055;-59
2022/01/20 07:00:55;;;;;;;38.98;20.68;;;;;;;0.20;75.68;142323.45;1671125;85;21065;-59
2022/01/20 07:03:22;;;;;;;36.98;20.02;;;;;;;0.28;75.79;142342.09;1721571;83;21004;-60
2022/01/20 07:05:48;;;;;;;34.78;19.75;;;;;;;0.53;74.77;142403.03;1671109;85;21096;-60
2022/01/20 07:08:15;;;;;;;39.27;20.80;;;;;;;0.70;73.67;142444.09;1688809;83;21005;-59
2022/01/20 07:10:42;;;;;;;33.95;18.35;;;;;;;0.76;73.80;142459.00;1680887;83;21052;-59
2022/01/20 07:13:09;;;;;;;36.33;18.77;;;;;;;0.87;72.89;142486.39;1678515;85;21216;-59
2022/01/20 07:15:36;;;;;;;30.48;18.20;;;;;;;1.03;72.42;142524.94;1678794;85;21103;-59
2022/01/20 07:18:03;;;;;;;37.35;20.02;;;;;;;1.28;71.42;142585.91;1658856;85;21045;-59
2022/01/20 07:20:31;;;;;;;37.67;20.20;;;;;;;1.87;69.87;142730.28;1721658;83;21592;-59
2022/01/20 07:23:12;;;;;;;31.85;17.40;;;;;;;2.35;68.19;142847.34;1730551;83;21047;-59
2022/01/20 07:25:40;;;;;;;39.08;19.70;;;;;;;2.85;66.67;142968.22;1724570;83;21211;-59
2022/01/20 07:28:14;;;;;;;31.80;18.60;;;;;;;3.59;63.94;143148.95;1718900;83;21113;-59
2022/01/20 07:30:41;;;;;;;34.30;19.50;;;;;;;3.96;62.08;143238.72;1729866;83;21067;-59
2022/01/20 07:33:09;;;;;;;34.00;20.23;;;;;;;4.20;60.88;143297.38;1677494;84;21552;-60
2022/01/20 07:35:37;;;;;;;33.55;19.48;;;;;;;4.78;59.17;143438.36;1702061;83;21502;-59
2022/01/20 07:38:05;;;;;;;32.78;18.75;;;;;;;5.27;57.08;143558.25;1712325;83;21622;-59
2022/01/20 07:40:34;;;;;;;32.13;19.02;;;;;;;5.61;56.62;143641.91;1692450;83;21512;-59
2022/01/20 07:43:01;;;;;;;36.42;20.85;;;;;;;5.97;54.24;143729.39;1699313;83;21029;-59
2022/01/20 07:45:35;;;;;;;30.60;19.02;;;;;;;5.87;53.69;143705.59;1705666;83;21067;-59
2022/01/20 07:48:19;;;;;;;34.38;20.30;;;;;;;5.98;53.58;143730.63;1644317;86;21040;-60
2022/01/20 07:50:47;;;;;;;32.75;19.23;;;;;;;6.25;52.90;143798.13;1692746;83;21087;-59
2022/01/20 07:53:15;;;;;;;30.80;19.02;;;;;;;6.50;52.12;143859.38;1686674;83;21028;-59
2022/01/20 07:55:43;;;;;;;30.88;17.75;;;;;;;6.77;51.43;143923.13;1670787;85;21026;-60
2022/01/20 07:58:10;;;;;;;34.20;19.07;;;;;;;6.90;50.66;143956.91;1706790;83;21051;-59
2022/01/20 08:00:40;;;;;;;34.03;19.10;;;;;;;7.20;50.05;144028.17;1690460;83;21095;-59
2022/01/20 08:03:07;;;;;;;32.55;19.60;;;;;;;7.20;49.11;144029.45;1686804;84;22205;-59
2022/01/20 08:05:35;;;;;;;34.83;18.67;;;;;;;7.30;49.11;144054.47;1689402;83;21016;-59
2022/01/20 08:08:04;;;;;;;26.85;18.00;;;;;;;7.56;48.45;144117.03;1695963;84;21028;-59
2022/01/20 08:10:31;;;;;;;33.63;18.27;;;;;;;7.82;47.35;144180.83;1699962;83;21095;-66
2022/01/20 08:12:58;;;;;;;28.60;17.92;;;;;;;7.96;46.72;144215.89;1664574;86;21107;-60
2022/01/20 08:15:28;;;;;;;30.77;18.40;;;;;;;8.12;46.44;144254.67;1664683;86;21108;-62
2022/01/20 08:17:58;;;;;;;27.62;17.42;;;;;;;8.16;45.68;144263.42;1662556;83;21112;-62
2022/01/20 08:20:25;;;;;;;34.67;19.10;;;;;;;7.65;46.50;144138.28;1664709;85;21541;-61
2022/01/20 08:22:54;;;;;;;34.33;19.42;;;;;;;7.32;46.95;144058.20;1665287;85;21566;-61
2022/01/20 08:25:21;;;;;;;31.68;20.27;;;;;;;7.13;47.33;144013.19;1673620;83;21100;-60
2022/01/20 08:27:49;;;;;;;30.85;19.45;;;;;;;7.28;47.42;144049.47;1670131;86;21092;-61
2022/01/20 08:30:19;;;;;;;31.20;15.48;;;;;;;7.58;46.83;144121.98;1669922;85;21112;-60
2022/01/20 08:32:47;;;;;;;26.70;15.15;;;;;;;7.49;46.28;144100.75;1673682;83;21558;-60
2022/01/20 08:35:23;;;;;;;28.77;15.35;;;;;;;7.14;46.66;144015.66;1673019;83;21637;-60
2022/01/20 08:38:00;;;;;;;23.75;15.55;;;;;;;6.69;47.10;143904.38;1670231;85;21674;-61
2022/01/20 08:40:27;;;;;;;25.80;14.43;;;;;;;6.52;47.50;143863.14;1670286;85;21020;-61
2022/01/20 08:42:56;;;;;;;26.68;15.05;;;;;;;6.31;47.52;143811.91;1683965;83;21546;-60
2022/01/20 08:45:28;;;;;;;26.80;14.93;;;;;;;5.85;48.28;143700.64;1686283;85;21532;-60
2022/01/20 08:47:57;;;;;;;25.02;15.18;;;;;;;5.59;48.84;143635.66;1686362;85;21122;-63
2022/01/20 08:50:27;;;;;;;24.95;15.95;;;;;;;5.26;49.28;143554.47;1693620;85;22239;-61
2022/01/20 08:52:55;;;;;;;26.95;16.40;;;;;;;5.00;50.12;143493.30;1712900;83;21027;-60
2022/01/20 08:55:26;;;;;;;28.38;16.65;;;;;;;5.05;50.45;143503.30;1694023;83;21016;-60
2022/01/20 08:57:58;;;;;;;;;;;;;;;5.06;50.29;143507.02;1696195;85;21091;-60
2022/01/20 09:00:31;;;;;;;28.15;15.98;;;;;;;4.92;50.68;143473.33;1694306;83;20103;-60
2022/01/20 09:03:00;;;;;;;24.92;15.25;;;;;;;4.83;50.96;143449.61;1666112;85;21147;-60
2022/01/20 09:05:27;;;;;;;32.78;16.82;;;;;;;4.96;51.11;143483.33;1665622;86;21097;-60
2022/01/20 09:08:09;;;;;;;28.60;15.58;;;;;;;5.02;50.87;143495.81;1665010;86;21728;-60
2022/01/20 09:10:38;;;;;;;28.87;14.68;;;;;;;4.99;50.84;143489.58;1665627;86;20993;-61
2022/01/20 09:15:56;;;;;;;29.30;15.85;;;;;;;4.64;51.57;143403.44;1670560;83;21147;-60
2022/01/20 09:18:26;;;;;;;26.90;15.00;;;;;;;4.56;52.04;143385.97;1663599;86;21087;-60
2022/01/20 09:20:53;;;;;;;25.72;15.00;;;;;;;4.51;52.20;143373.48;1686122;85;21176;-60
2022/01/20 09:23:20;;;;;;;26.48;14.87;;;;;;;4.39;52.25;143342.28;1686259;84;21056;-59
2022/01/20 09:25:49;;;;;;;29.87;16.23;;;;;;;4.20;52.89;143296.09;1688011;83;21479;-60
2022/01/20 09:28:17;;;;;;;27.37;15.60;;;;;;;4.10;53.32;143273.67;1671254;83;21123;-61
2022/01/20 09:30:46;;;;;;;27.90;15.23;;;;;;;3.99;53.63;143246.20;1687846;83;21098;-60
2022/01/20 09:33:17;;;;;;;26.35;15.45;;;;;;;3.79;53.97;143196.31;1664829;85;21104;-61
2022/01/20 09:35:45;;;;;;;25.65;15.10;;;;;;;3.61;54.39;143152.67;1693374;83;21087;-64
2022/01/20 09:38:12;;;;;;;29.10;15.25;;;;;;;3.46;55.09;143116.50;1674362;83;21079;-60
2022/01/20 09:40:41;;;;;;;28.45;15.93;;;;;;;3.34;55.25;143087.86;1690573;84;21108;-61
2022/01/20 09:43:11;;;;;;;29.63;16.82;;;;;;;3.21;55.67;143056.69;1698284;83;21693;-61
2022/01/20 09:45:38;;;;;;;27.45;16.77;;;;;;;3.15;56.19;143041.70;1691050;83;21033;-62
2022/01/20 09:48:06;;;;;;;27.45;15.53;;;;;;;3.14;56.37;143039.23;1703805;83;21083;-60
2022/01/20 09:50:53;;;;;;;27.42;14.50;;;;;;;3.11;56.37;143030.53;1677540;85;21048;-60
2022/01/20 09:53:40;;;;;;;27.10;14.80;;;;;;;3.02;56.66;143010.55;1676007;85;21127;-60
2022/01/20 09:56:25;;;;;;;28.38;15.90;;;;;;;2.95;56.87;142991.86;1684692;83;21081;-60
2022/01/20 09:58:52;;;;;;;27.37;16.50;;;;;;;2.96;57.10;142995.61;1665553;86;21636;-60
2022/01/20 10:01:45;;;;;;;30.50;16.48;;;;;;;3.03;57.16;143011.83;1667181;83;21552;-60
2022/01/20 10:04:32;;;;;;;30.95;16.52;;;;;;;3.07;57.12;143020.53;1707375;83;21086;-60
2022/01/20 10:10:01;;;;;;;32.13;16.30;;;;;;;3.12;57.24;143033.00;1619319;87;21590;-60
2022/01/20 10:12:34;;;;;;;31.55;16.73;;;;;;;3.10;57.14;143028.00;1619421;87;21031;-60
2022/01/20 10:15:08;;;;;;;25.57;15.15;;;;;;;3.08;57.25;143024.30;1642846;86;21108;-60
2022/01/20 10:17:51;;;;;;;25.48;14.30;;;;;;;3.10;57.26;143029.25;1615586;88;21614;-62
2022/01/20 10:20:19;;;;;;;32.05;17.15;;;;;;;3.25;57.31;143066.64;1623729;85;21126;-62
2022/01/20 10:22:56;;;;;;;29.82;17.17;;;;;;;3.43;57.07;143110.27;1624167;87;21147;-62
2022/01/20 10:25:38;;;;;;;32.35;16.00;;;;;;;3.53;56.86;143132.72;1641668;86;21104;-62
2022/01/20 10:28:16;;;;;;;33.35;16.32;;;;;;;3.60;56.69;143150.19;1641562;86;21080;-62
2022/01/20 10:30:43;;;;;;;28.02;15.88;;;;;;;3.61;56.47;143152.67;1647377;85;21120;-63
2022/01/20 10:33:10;;;;;;;29.98;16.32;;;;;;;3.62;56.41;143156.44;1640743;86;21120;-62
2022/01/20 10:35:39;;;;;;;28.67;16.40;;;;;;;3.59;56.48;143148.95;1639960;87;21690;-62
2022/01/20 10:38:14;;;;;;;27.40;15.35;;;;;;;3.64;56.53;143161.42;1622424;87;21110;-62
2022/01/20 10:40:54;;;;;;;27.65;16.17;;;;;;;3.67;56.56;143168.91;1622401;88;21097;-63
2022/01/20 10:43:28;;;;;;;24.45;14.65;;;;;;;3.62;56.78;143155.19;1633317;87;21148;-62
2022/01/20 10:46:11;;;;;;;32.73;17.07;;;;;;;3.59;57.12;143147.72;1648809;86;21088;-62
2022/01/20 10:48:39;;;;;;;30.62;17.75;;;;;;;3.64;57.16;143161.42;1649318;85;21037;-62
2022/01/20 10:51:21;;;;;;;31.30;14.85;;;;;;;3.79;57.29;143196.31;1647271;86;21136;-62
2022/01/20 10:54:11;;;;;;;31.17;16.90;;;;;;;3.84;56.86;143208.78;1654187;85;21096;-61
2022/01/20 10:56:57;;;;;;;32.70;15.98;;;;;;;3.90;56.79;143223.78;1650022;84;21062;-62
2022/01/20 10:59:25;;;;;;;27.73;14.65;;;;;;;3.98;56.70;143243.72;1669933;85;21131;-62
2022/01/20 11:02:05;;;;;;;30.57;14.75;;;;;;;4.03;56.70;143256.20;1648488;87;21641;-62
2022/01/20 11:04:34;;;;;;;30.30;15.55;;;;;;;4.03;56.50;143254.95;1648286;85;21329;-62
2022/01/20 11:07:06;;;;;;;27.30;15.38;;;;;;;3.97;56.82;143241.25;1648347;86;21119;-61
2022/01/20 11:09:39;;;;;;;28.50;15.60;;;;;;;3.98;56.86;143243.72;1652187;84;21730;-62
2022/01/20 11:12:18;;;;;;;24.02;14.98;;;;;;;3.92;57.08;143228.78;1622377;84;21111;-62
2022/01/20 11:14:51;;;;;;;28.40;15.80;;;;;;;3.84;57.33;143208.78;1647346;86;21167;-62
2022/01/20 11:17:21;;;;;;;34.98;17.50;;;;;;;3.75;57.37;143186.36;1648027;86;21116;-61
2022/01/20 11:19:49;;;;;;;28.60;15.63;;;;;;;3.72;57.66;143180.13;1626920;86;21201;-62
2022/01/20 11:22:19;;;;;;;26.17;14.53;;;;;;;3.68;57.87;143171.37;1636863;86;21064;-62
2022/01/20 11:25:07;;;;;;;23.80;12.00;;;;;;;3.70;58.14;143176.38;1647182;87;21041;-62
2022/01/20 11:27:42;;;;;;;28.12;15.75;;;;;;;3.78;58.10;143195.08;1647495;85;21116;-62
2022/01/20 11:30:26;;;;;;;27.73;16.10;;;;;;;3.86;58.08;143215.02;1644265;86;21053;-62
2022/01/20 11:33:18;;;;;;;27.98;14.28;;;;;;;3.90;58.18;143223.78;1621438;86;21144;-61
2022/01/20 11:35:51;;;;;;;29.20;14.63;;;;;;;3.94;58.06;143232.48;1647331;86;21609;-62
2022/01/20 11:38:22;;;;;;;29.80;14.73;;;;;;;3.93;58.20;143230.02;1647452;87;21123;-62
2022/01/20 11:41:02;;;;;;;26.12;14.20;;;;;;;3.84;58.60;143208.78;1648686;87;21095;-62
2022/01/20 11:43:51;;;;;;;27.95;14.40;;;;;;;3.79;58.84;143196.31;1628030;87;21077;-62
2022/01/20 11:46:27;;;;;;;25.62;14.85;;;;;;;3.75;59.16;143186.36;1615806;88;21049;-62
2022/01/20 11:49:00;;;;;;;27.70;14.00;;;;;;;3.68;59.38;143171.37;1628551;86;21617;-62
2022/01/20 11:51:56;;;;;;;26.73;14.98;;;;;;;3.59;59.58;143147.72;1616000;88;21180;-62
2022/01/20 11:54:39;;;;;;;31.65;14.18;;;;;;;3.51;59.91;143127.73;1622044;87;21132;-62
2022/01/20 11:57:24;;;;;;;29.18;14.18;;;;;;;3.48;60.10;143121.50;1622347;87;21100;-61
2022/01/20 12:00:00;;;;;;;31.27;17.02;;;;;;;3.44;60.32;143112.78;1638722;86;21096;-62
2022/01/20 12:02:37;;;;;;;30.68;15.98;;;;;;;3.48;60.54;143121.50;1648467;86;21057;-62
2022/01/20 12:05:32;;;;;;;29.35;16.37;;;;;;;3.49;60.66;143124.02;1648544;86;21036;-63
2022/01/20 12:08:18;;;;;;;32.65;15.48;;;;;;;3.44;60.79;143112.78;1629696;86;21635;-62
2022/01/20 12:11:03;;;;;;;31.73;18.07;;;;;;;3.37;61.05;143095.33;1628365;86;21164;-61
2022/01/20 12:13:32;;;;;;;29.92;15.60;;;;;;;3.28;61.51;143071.63;1614261;88;21077;-62
2022/01/20 12:16:02;;;;;;;32.05;18.17;;;;;;;3.20;61.85;143054.17;1583979;90;21154;-62
2022/01/20 12:18:31;;;;;;;24.80;15.78;;;;;;;3.16;62.09;143044.22;1627695;87;21099;-62
2022/01/20 12:21:06;;;;;;;25.27;15.23;;;;;;;3.18;62.24;143047.94;1624504;87;21067;-62
2022/01/20 12:23:42;;;;;;;27.27;15.58;;;;;;;3.29;62.20;143074.16;1640269;87;21075;-62
2022/01/20 12:26:11;;;;;;;29.40;16.12;;;;;;;3.43;61.99;143109.03;1624295;88;21167;-62
2022/01/20 12:28:39;;;;;;;29.85;15.25;;;;;;;3.51;61.93;143127.73;1637294;86;21540;-62
2022/01/20 12:31:13;;;;;;;31.55;16.42;;;;;;;3.51;61.91;143129.02;1627835;87;21138;-62
2022/01/20 12:33:45;;;;;;;31.12;15.95;;;;;;;3.67;61.66;143167.66;1623313;87;21114;-62
2022/01/20 12:36:16;;;;;;;30.25;15.85;;;;;;;3.83;61.40;143206.31;1627631;87;21174;-62
2022/01/20 12:38:49;;;;;;;28.10;14.90;;;;;;;3.98;61.13;143243.72;1624956;88;21093;-62